Time;durP1;ratioP1;P1;durP2;ratioP2;P2;SDS_P1;SDS_P2;PMS_P1;PMS_P2;Temp;Humidity;BMP_temperature;BMP_pressure;BME280_temperature;BME280_humidity;BME280_pressure;Samples;Min_cycle;Max_cycle;Signal;HPM_P1;HPM_P2
2022/08/20 00:00:18;;;;;;;12.48;11.27;;;19.40;99.90;;;;;;5136623;27;20043;-90
2022/08/20 00:02:47;;;;;;;13.95;12.63;;;19.40;99.90;;;;;;5118245;27;20082;-90
2022/08/20 00:05:14;;;;;;;13.02;11.65;;;19.30;99.90;;;;;;5117833;27;20039;-90
2022/08/20 00:07:40;;;;;;;12.60;11.30;;;19.30;99.90;;;;;;5117799;27;20518;-90
2022/08/20 00:10:07;;;;;;;11.85;10.65;;;19.20;99.90;;;;;;5117861;27;20043;-90
2022/08/20 00:12:33;;;;;;;12.45;11.18;;;19.30;99.90;;;;;;5118028;27;20449;-90
2022/08/20 00:15:00;;;;;;;12.27;10.57;;;19.30;99.90;;;;;;5117757;27;20039;-89
2022/08/20 00:17:27;;;;;;;12.32;11.13;;;19.20;99.90;;;;;;5135686;27;20536;-90
2022/08/20 00:19:53;;;;;;;13.27;11.85;;;19.20;99.90;;;;;;5117332;27;20039;-90
2022/08/20 00:22:19;;;;;;;13.80;10.88;;;19.30;99.90;;;;;;5100847;27;20054;-90
2022/08/20 00:24:44;;;;;;;12.68;11.23;;;19.30;99.90;;;;;;5117947;27;20043;-90
2022/08/20 00:27:10;;;;;;;12.80;11.07;;;19.20;99.90;;;;;;5117823;27;20039;-90
2022/08/20 00:29:35;;;;;;;13.27;12.00;;;19.20;99.90;;;;;;5135936;27;20540;-90
2022/08/20 00:32:01;;;;;;;13.90;12.05;;;19.20;99.90;;;;;;5117561;27;20050;-90
2022/08/20 00:34:27;;;;;;;14.82;13.23;;;19.10;99.90;;;;;;5117315;27;20484;-90
2022/08/20 00:36:52;;;;;;;12.50;11.20;;;19.10;99.90;;;;;;5135695;27;20042;-90
2022/08/20 00:39:18;;;;;;;12.52;11.25;;;19.10;99.90;;;;;;5117253;27;20480;-90
2022/08/20 00:41:44;;;;;;;11.73;10.63;;;19.10;99.90;;;;;;5100266;27;20446;-90
2022/08/20 00:44:20;;;;;;;13.60;12.15;;;19.20;99.90;;;;;;5100215;27;20495;-90
2022/08/20 00:46:47;;;;;;;12.70;11.35;;;19.10;99.90;;;;;;5100573;27;20035;-90
2022/08/20 00:49:27;;;;;;;12.40;11.10;;;19.10;99.90;;;;;;5100027;27;20425;-90
2022/08/20 00:51:58;;;;;;;13.48;11.02;;;19.10;99.90;;;;;;5100024;27;20296;-90
2022/08/20 00:54:42;;;;;;;12.13;10.95;;;19.10;99.90;;;;;;5135579;27;20076;-90
2022/08/20 00:57:11;;;;;;;11.85;10.77;;;19.10;99.90;;;;;;5135582;27;20035;-91
2022/08/20 00:59:40;;;;;;;12.60;11.23;;;19.10;99.90;;;;;;5116313;28;20508;-90
2022/08/20 01:02:11;;;;;;;11.68;10.57;;;19.00;99.90;;;;;;5099511;27;20050;-91
2022/08/20 01:04:36;;;;;;;13.63;11.32;;;19.00;99.90;;;;;;5099879;27;20047;-90
2022/08/20 01:07:04;;;;;;;12.35;11.15;;;19.10;99.90;;;;;;5100081;27;20058;-90
2022/08/20 01:09:30;;;;;;;14.25;12.75;;;19.00;99.90;;;;;;5117424;27;20505;-90
2022/08/20 01:11:56;;;;;;;13.30;11.07;;;19.10;99.90;;;;;;5135229;27;20091;-90
2022/08/20 01:17:01;;;;;;;;;;;19.10;99.90;;;;;;5116963;27;20074;-90
2022/08/20 01:19:32;;;;;;;12.07;10.90;;;19.00;99.90;;;;;;5116579;27;19919;-90
2022/08/20 01:21:59;;;;;;;14.50;11.38;;;19.00;99.90;;;;;;5116939;27;20035;-90
2022/08/20 01:24:38;;;;;;;12.27;11.05;;;19.00;99.90;;;;;;5116942;27;20115;-90
2022/08/20 01:27:05;;;;;;;15.02;12.93;;;19.10;99.90;;;;;;5099437;27;20479;-90
2022/08/20 01:29:36;;;;;;;12.60;11.30;;;19.00;99.90;;;;;;5116628;27;20043;-90
2022/08/20 01:32:03;;;;;;;16.05;12.02;;;19.00;99.90;;;;;;5134374;27;20550;-90
2022/08/20 01:34:29;;;;;;;15.68;12.35;;;18.90;99.90;;;;;;5116598;27;20492;-90
2022/08/20 01:36:56;;;;;;;14.25;12.80;;;18.90;99.90;;;;;;5116657;27;20039;-90
2022/08/20 01:39:26;;;;;;;14.57;11.65;;;18.90;99.90;;;;;;5115900;27;20447;-90
2022/08/20 01:42:03;;;;;;;14.20;10.93;;;18.90;99.90;;;;;;5134468;27;20086;-90
2022/08/20 01:44:30;;;;;;;14.90;10.68;;;18.80;99.90;;;;;;5099768;27;20464;-90
2022/08/20 01:46:58;;;;;;;11.65;10.48;;;18.90;99.90;;;;;;5116000;27;20047;-91
2022/08/20 01:49:28;;;;;;;12.07;10.80;;;18.90;99.90;;;;;;5116311;27;20039;-90
2022/08/20 01:51:56;;;;;;;12.68;11.30;;;18.80;99.90;;;;;;5134419;27;20043;-90
2022/08/20 01:54:22;;;;;;;12.98;11.70;;;18.80;99.90;;;;;;5116145;27;20039;-91
2022/08/20 01:56:58;;;;;;;16.45;11.82;;;18.80;99.90;;;;;;5116292;27;20130;-90
2022/08/20 01:59:24;;;;;;;11.45;10.30;;;18.80;99.90;;;;;;5134559;27;20042;-91
2022/08/20 02:01:51;;;;;;;13.85;11.60;;;18.70;99.90;;;;;;5134286;27;20042;-90
2022/08/20 02:04:18;;;;;;;12.40;11.20;;;18.80;99.90;;;;;;5134721;27;20032;-91
2022/08/20 02:06:48;;;;;;;11.33;10.23;;;18.70;99.90;;;;;;5119740;27;20039;-91
2022/08/20 02:09:14;;;;;;;14.40;11.57;;;18.70;99.90;;;;;;5102002;27;20036;-90
2022/08/20 02:11:40;;;;;;;12.13;10.90;;;18.80;99.90;;;;;;5134106;27;20043;-91
2022/08/20 02:14:09;;;;;;;14.68;11.13;;;18.80;99.90;;;;;;5098963;27;20555;-91
2022/08/20 02:16:37;;;;;;;13.68;10.38;;;18.70;99.90;;;;;;5115573;27;20104;-91
2022/08/20 02:19:11;;;;;;;14.32;10.45;;;18.80;99.90;;;;;;5098630;27;20049;-91
2022/08/20 02:21:41;;;;;;;12.30;10.52;;;18.70;99.90;;;;;;5116291;27;20043;-91
2022/08/20 02:24:07;;;;;;;11.52;9.95;;;18.70;99.90;;;;;;5098704;27;20042;-91
2022/08/20 02:26:36;;;;;;;13.88;10.10;;;18.70;99.90;;;;;;5115670;27;20047;-91
2022/08/20 02:29:04;;;;;;;12.55;10.30;;;18.70;99.90;;;;;;5115746;27;20491;-91
2022/08/20 02:31:30;;;;;;;10.27;9.13;;;18.60;99.90;;;;;;5115420;27;20239;-91
2022/08/20 02:33:55;;;;;;;11.85;10.25;;;18.60;99.90;;;;;;5115531;27;20122;-91
2022/08/20 02:36:21;;;;;;;14.52;10.95;;;18.60;99.90;;;;;;5098509;27;20050;-91
2022/08/20 02:38:47;;;;;;;12.13;10.10;;;18.60;99.90;;;;;;5098547;27;20082;-91
2022/08/20 02:41:14;;;;;;;14.35;9.65;;;18.50;99.90;;;;;;5121667;27;20138;-91
2022/08/20 02:43:39;;;;;;;12.55;9.45;;;18.60;99.90;;;;;;5136180;27;20054;-91
2022/08/20 02:46:06;;;;;;;12.20;9.88;;;18.50;99.90;;;;;;5154152;27;20482;-91
2022/08/20 02:48:32;;;;;;;12.00;8.88;;;18.50;99.90;;;;;;5115356;27;20157;-91
2022/08/20 02:51:01;;;;;;;13.50;9.32;;;18.50;99.90;;;;;;5115360;27;20092;-91
2022/08/20 02:53:29;;;;;;;14.45;10.18;;;18.40;99.90;;;;;;5115701;27;20039;-91
2022/08/20 02:55:56;;;;;;;11.55;9.98;;;18.40;99.90;;;;;;5133693;27;20046;-91
2022/08/20 02:58:22;;;;;;;11.82;9.55;;;18.40;99.90;;;;;;5153864;27;20050;-91
2022/08/20 03:00:49;;;;;;;10.07;8.95;;;18.30;99.90;;;;;;5135221;27;20054;-91
2022/08/20 03:03:19;;;;;;;10.60;8.23;;;18.30;99.90;;;;;;5135899;27;20439;-91
2022/08/20 03:05:44;;;;;;;13.98;10.05;;;18.20;99.90;;;;;;5135502;27;20487;-91
2022/08/20 03:08:13;;;;;;;12.98;10.18;;;18.20;99.90;;;;;;5153945;27;20042;-91
2022/08/20 03:10:40;;;;;;;10.90;9.25;;;18.20;99.90;;;;;;5135222;27;20035;-91
2022/08/20 03:13:11;;;;;;;11.02;9.90;;;18.10;99.90;;;;;;5154159;27;20042;-90
2022/08/20 03:15:42;;;;;;;10.70;8.63;;;18.10;99.90;;;;;;5153489;27;20038;-91
2022/08/20 03:18:08;;;;;;;9.77;8.05;;;18.00;99.90;;;;;;5154205;27;20046;-91
2022/08/20 03:20:34;;;;;;;13.38;9.05;;;18.00;99.90;;;;;;5135687;27;20038;-91
2022/08/20 03:23:00;;;;;;;12.05;7.93;;;17.90;99.90;;;;;;5134734;27;20085;-91
2022/08/20 03:25:25;;;;;;;14.40;10.18;;;17.90;99.90;;;;;;5152694;27;20070;-91
2022/08/20 03:27:52;;;;;;;11.80;9.23;;;18.00;99.90;;;;;;5134895;27;20039;-90
2022/08/20 03:30:18;;;;;;;11.25;9.15;;;18.00;99.90;;;;;;5135399;27;20117;-90
2022/08/20 03:32:44;;;;;;;14.13;9.90;;;18.00;99.90;;;;;;5135433;27;20058;-91
2022/08/20 03:35:12;;;;;;;14.83;9.73;;;17.90;99.90;;;;;;5135640;27;20127;-91
2022/08/20 03:37:39;;;;;;;11.70;9.55;;;17.90;99.90;;;;;;5152867;27;20121;-91
2022/08/20 03:40:08;;;;;;;11.40;9.25;;;17.90;99.90;;;;;;5117810;27;20103;-91
2022/08/20 03:42:34;;;;;;;13.98;9.90;;;17.90;99.90;;;;;;5134832;27;20081;-92
2022/08/20 03:45:00;;;;;;;15.30;8.90;;;17.80;99.90;;;;;;5135575;27;20042;-92
2022/08/20 03:47:26;;;;;;;12.15;9.70;;;17.80;99.90;;;;;;5116766;27;20043;-91
2022/08/20 03:49:56;;;;;;;12.27;9.30;;;17.80;99.90;;;;;;5115815;28;20050;-91
2022/08/20 03:52:21;;;;;;;10.75;9.15;;;17.80;99.90;;;;;;5115912;28;20075;-91
2022/08/20 03:54:47;;;;;;;12.52;9.43;;;17.70;99.90;;;;;;5127424;28;20098;-91
2022/08/20 03:57:14;;;;;;;11.23;9.52;;;17.70;99.90;;;;;;5157201;27;20037;-90
2022/08/20 03:59:41;;;;;;;11.00;8.52;;;17.60;99.90;;;;;;5123143;28;20098;-91
2022/08/20 04:02:07;;;;;;;11.05;9.55;;;17.60;99.90;;;;;;5158304;27;20019;-91
2022/08/20 04:04:33;;;;;;;13.15;10.38;;;17.60;99.90;;;;;;5138537;28;20506;-91
2022/08/20 04:06:58;;;;;;;11.95;9.57;;;17.60;99.90;;;;;;5137216;28;20319;-91
2022/08/20 04:09:24;;;;;;;14.48;9.55;;;17.60;99.90;;;;;;5114952;28;20031;-91
2022/08/20 04:11:50;;;;;;;15.60;10.13;;;17.50;99.90;;;;;;5132633;28;20096;-91
2022/08/20 04:14:15;;;;;;;14.40;9.65;;;17.50;99.90;;;;;;5114955;28;20038;-92
2022/08/20 04:16:42;;;;;;;14.13;9.70;;;17.50;99.90;;;;;;5097513;28;20071;-91
2022/08/20 04:19:07;;;;;;;10.70;9.07;;;17.60;99.90;;;;;;5114730;28;20050;-91
2022/08/20 04:21:34;;;;;;;14.38;9.65;;;17.50;99.90;;;;;;5132890;28;20039;-91
2022/08/20 04:24:02;;;;;;;13.40;9.43;;;17.60;99.90;;;;;;5132819;28;20097;-91
2022/08/20 04:26:28;;;;;;;;;;;17.60;99.90;;;;;;5114626;28;20501;-91
2022/08/20 04:28:54;;;;;;;9.88;8.63;;;17.60;99.90;;;;;;5114453;28;19915;-91
2022/08/20 04:31:20;;;;;;;11.15;9.20;;;17.60;99.90;;;;;;5114204;28;20046;-91
2022/08/20 04:33:46;;;;;;;11.60;8.93;;;17.60;99.90;;;;;;5114461;28;20092;-91
2022/08/20 04:36:13;;;;;;;14.30;9.57;;;17.60;99.90;;;;;;5135921;27;20035;-91
2022/08/20 04:38:39;;;;;;;12.90;9.55;;;17.60;99.90;;;;;;5101079;27;20131;-91
2022/08/20 04:41:04;;;;;;;17.67;9.98;;;17.60;99.90;;;;;;5117248;27;20035;-91
2022/08/20 04:43:33;;;;;;;13.15;10.40;;;17.60;99.90;;;;;;5136238;27;20100;-91
2022/08/20 04:46:04;;;;;;;14.27;9.73;;;17.60;99.90;;;;;;5117987;27;20039;-91
2022/08/20 04:48:31;;;;;;;17.05;9.70;;;17.60;99.90;;;;;;5118154;27;20091;-91
2022/08/20 04:50:58;;;;;;;14.55;9.75;;;17.60;99.90;;;;;;5117733;27;20035;-91
2022/08/20 04:53:26;;;;;;;12.60;9.25;;;17.60;99.90;;;;;;5100862;27;20122;-91
2022/08/20 04:55:53;;;;;;;11.60;8.82;;;17.60;99.90;;;;;;5100296;27;20060;-91
2022/08/20 04:58:26;;;;;;;13.02;8.65;;;17.60;99.90;;;;;;5136153;27;20054;-92
2022/08/20 05:00:59;;;;;;;15.73;9.02;;;17.60;99.90;;;;;;5117436;27;20047;-92
2022/08/20 05:03:25;;;;;;;11.73;9.20;;;17.60;99.90;;;;;;5100569;27;20156;-91
2022/08/20 05:05:52;;;;;;;16.27;10.13;;;17.60;99.90;;;;;;5135763;27;20039;-91
2022/08/20 05:08:20;;;;;;;12.85;8.32;;;17.70;99.90;;;;;;5117968;27;20479;-92
2022/08/20 05:10:46;;;;;;;10.45;8.10;;;17.60;99.90;;;;;;5100386;27;20090;-92
2022/08/20 05:13:15;;;;;;;12.15;8.25;;;17.60;99.90;;;;;;5117460;27;20031;-91
2022/08/20 05:15:41;;;;;;;15.07;8.95;;;17.60;99.90;;;;;;5100685;27;20054;-92
2022/08/20 05:18:08;;;;;;;9.95;7.32;;;17.70;99.90;;;;;;5117357;27;20471;-92
2022/08/20 05:20:39;;;;;;;16.63;7.85;;;17.60;99.90;;;;;;5117564;27;20510;-92
2022/08/20 05:23:07;;;;;;;14.73;7.53;;;17.60;99.90;;;;;;5141182;27;20113;-92
2022/08/20 05:25:33;;;;;;;11.07;8.15;;;17.60;99.90;;;;;;5140046;27;20039;-91
2022/08/20 05:28:02;;;;;;;10.90;7.93;;;17.60;99.90;;;;;;5138181;27;20043;-92
2022/08/20 05:30:32;;;;;;;15.68;8.13;;;17.70;99.90;;;;;;5099943;27;20089;-92
2022/08/20 05:32:59;;;;;;;10.50;7.55;;;17.60;99.90;;;;;;5117282;27;20121;-91
2022/08/20 05:35:26;;;;;;;13.03;7.67;;;17.70;99.90;;;;;;5117513;27;20043;-92
2022/08/20 05:37:52;;;;;;;11.20;8.30;;;17.60;99.90;;;;;;5117387;27;20336;-92
2022/08/20 05:40:21;;;;;;;11.60;7.30;;;17.70;99.90;;;;;;5116126;27;20757;-92
2022/08/20 05:42:47;;;;;;;10.35;7.43;;;17.70;99.90;;;;;;5117198;27;20060;-92
2022/08/20 05:45:14;;;;;;;13.63;7.35;;;17.70;99.90;;;;;;5116965;27;20126;-92
2022/08/20 05:47:40;;;;;;;10.27;7.03;;;17.70;99.90;;;;;;5098801;27;20039;-91
2022/08/20 05:50:07;;;;;;;11.20;7.25;;;17.60;99.90;;;;;;5117102;27;20118;-92
2022/08/20 05:52:33;;;;;;;11.32;7.60;;;17.60;99.90;;;;;;5116943;27;20043;-92
2022/08/20 05:54:58;;;;;;;11.90;7.60;;;17.60;99.90;;;;;;5099756;27;20046;-92
2022/08/20 05:57:24;;;;;;;16.40;8.07;;;17.60;99.90;;;;;;5117020;27;20491;-92
2022/08/20 05:59:49;;;;;;;12.50;6.95;;;17.70;99.90;;;;;;5135585;27;20185;-92
2022/08/20 06:04:59;;;;;;;10.38;6.50;;;17.70;99.90;;;;;;5116520;27;20480;-92
2022/08/20 06:07:26;;;;;;;10.13;6.32;;;17.80;99.90;;;;;;5099089;27;20087;-93
2022/08/20 06:09:51;;;;;;;12.20;6.60;;;17.80;99.90;;;;;;5116708;27;20035;-92
2022/08/20 06:12:17;;;;;;;11.07;6.47;;;17.90;99.90;;;;;;5099617;27;20035;-92
2022/08/20 06:14:46;;;;;;;11.30;6.15;;;18.10;99.90;;;;;;5134491;27;20040;-92
2022/08/20 06:17:17;;;;;;;10.70;6.25;;;18.90;99.90;;;;;;5134427;27;20121;-92
2022/08/20 06:19:45;;;;;;;11.85;6.75;;;19.00;99.90;;;;;;5116428;27;20035;-92
2022/08/20 06:22:11;;;;;;;9.27;5.88;;;20.30;99.90;;;;;;5099059;27;20138;-92
2022/08/20 06:24:36;;;;;;;9.40;5.40;;;21.40;99.90;;;;;;5134381;27;20084;-92
2022/08/20 06:27:04;;;;;;;7.38;4.93;;;22.20;99.90;;;;;;5134412;27;20039;-92
2022/08/20 06:29:32;;;;;;;9.40;5.22;;;22.90;99.90;;;;;;5099345;27;20093;-93
2022/08/20 06:31:58;;;;;;;8.80;4.50;;;22.90;99.90;;;;;;5099583;27;20078;-92
2022/08/20 06:34:27;;;;;;;9.50;4.03;;;22.90;99.90;;;;;;5098923;27;20087;-92
2022/08/20 06:36:53;;;;;;;7.20;3.80;;;22.50;99.90;;;;;;5098715;27;20051;-92
2022/08/20 06:39:19;;;;;;;8.63;3.03;;;22.00;99.90;;;;;;5133744;27;20490;-93
2022/08/20 06:41:44;;;;;;;7.72;3.10;;;21.10;99.90;;;;;;5134083;27;20047;-93
2022/08/20 06:44:10;;;;;;;11.25;3.70;;;20.60;99.90;;;;;;5098975;27;20395;-92
2022/08/20 06:46:36;;;;;;;9.63;4.03;;;20.80;99.90;;;;;;5115570;27;20050;-93
2022/08/20 06:49:05;;;;;;;8.85;3.70;;;20.70;99.90;;;;;;5115657;27;20487;-92
2022/08/20 06:51:31;;;;;;;9.70;3.05;;;20.60;99.90;;;;;;5098364;27;20043;-93
2022/08/20 06:53:57;;;;;;;8.00;2.72;;;20.30;99.90;;;;;;5099172;27;20102;-93
2022/08/20 06:56:23;;;;;;;8.80;2.80;;;20.10;99.90;;;;;;5115674;27;20130;-92
2022/08/20 06:58:48;;;;;;;6.47;2.92;;;20.20;99.90;;;;;;5115848;27;20039;-92
2022/08/20 07:01:20;;;;;;;9.43;2.83;;;20.50;99.90;;;;;;5115697;27;20376;-92
2022/08/20 07:03:47;;;;;;;10.75;3.00;;;21.10;99.90;;;;;;5115700;27;20043;-93
2022/08/20 07:06:13;;;;;;;7.38;2.50;;;21.00;99.90;;;;;;5098151;27;20235;-92
2022/08/20 07:08:39;;;;;;;8.18;2.78;;;21.80;99.90;;;;;;5115293;27;20483;-93
2022/08/20 07:11:05;;;;;;;5.55;2.08;;;21.90;99.90;;;;;;5133377;27;20054;-93
2022/08/20 07:13:31;;;;;;;6.20;2.20;;;22.10;99.90;;;;;;5133606;27;20039;-92
2022/08/20 07:15:57;;;;;;;6.93;2.10;;;21.80;99.90;;;;;;5098407;27;20035;-93
2022/08/20 07:18:23;;;;;;;7.07;2.63;;;21.50;99.90;;;;;;5115281;27;20092;-93
2022/08/20 07:20:49;;;;;;;6.72;2.35;;;21.40;99.90;;;;;;5098260;28;20046;-93
2022/08/20 07:23:14;;;;;;;7.03;2.30;;;21.10;99.90;;;;;;5115834;28;20114;-92
2022/08/20 07:25:42;;;;;;;8.95;2.33;;;21.10;99.90;;;;;;5115366;28;20091;-92
2022/08/20 07:28:13;;;;;;;;;;;21.00;99.90;;;;;;5098876;28;20035;-92
2022/08/20 07:33:25;;;;;;;6.35;2.17;;;21.10;99.90;;;;;;5133548;28;20054;-92
2022/08/20 07:35:50;;;;;;;5.85;2.05;;;21.10;99.90;;;;;;5114624;28;20046;-92
2022/08/20 07:38:25;;;;;;;9.23;2.22;;;21.00;99.90;;;;;;5115002;28;20047;-92
2022/08/20 07:40:53;;;;;;;6.90;2.25;;;21.10;99.90;;;;;;5114791;28;20043;-92
2022/08/20 07:43:22;;;;;;;7.25;1.80;;;21.40;99.90;;;;;;5115220;28;20099;-92
2022/08/20 07:45:48;;;;;;;6.15;1.77;;;21.40;99.90;;;;;;5115280;28;20044;-92
2022/08/20 07:48:16;;;;;;;8.63;2.47;;;21.60;99.90;;;;;;5098243;28;20494;-92
2022/08/20 07:50:42;;;;;;;5.22;1.95;;;21.60;99.90;;;;;;5114738;28;20051;-91
2022/08/20 07:53:08;;;;;;;8.50;1.55;;;21.50;99.90;;;;;;5097941;28;20040;-92
2022/08/20 07:55:34;;;;;;;8.15;1.98;;;21.80;99.90;;;;;;5097883;28;20046;-91
2022/08/20 07:58:07;;;;;;;6.75;1.83;;;21.90;99.90;;;;;;5132861;28;20047;-91
2022/08/20 08:00:33;;;;;;;7.25;1.65;;;21.90;99.90;;;;;;5097976;28;20087;-91
2022/08/20 08:02:59;;;;;;;4.95;1.70;;;21.80;99.90;;;;;;5132814;28;20070;-91
2022/08/20 08:05:24;;;;;;;7.78;2.03;;;21.50;99.90;;;;;;5131474;28;20036;-91
2022/08/20 08:07:51;;;;;;;8.10;1.90;;;21.10;99.90;;;;;;5097709;28;20047;-91
2022/08/20 08:10:21;;;;;;;5.97;1.50;;;21.10;99.90;;;;;;5116463;27;20082;-90
2022/08/20 08:12:52;;;;;;;7.30;1.58;;;20.80;99.90;;;;;;5101274;27;20085;-91
2022/08/20 08:15:21;;;;;;;4.65;1.40;;;;;;;;;;5118951;27;20039;-91
2022/08/20 08:17:48;;;;;;;5.20;1.52;;;20.60;99.90;;;;;;5117986;27;20043;-91
2022/08/20 08:20:14;;;;;;;4.45;1.42;;;20.80;99.90;;;;;;5101399;27;20043;-90
2022/08/20 08:22:41;;;;;;;8.65;2.20;;;20.90;99.90;;;;;;5118234;27;20054;-91
2022/08/20 08:25:15;;;;;;;3.47;1.23;;;21.00;99.90;;;;;;5101921;27;20387;-90
2022/08/20 08:27:42;;;;;;;5.07;1.42;;;21.10;99.90;;;;;;5136204;27;20031;-89
2022/08/20 08:30:09;;;;;;;3.80;1.35;;;21.10;99.90;;;;;;5118215;27;20039;-90
2022/08/20 08:32:36;;;;;;;6.15;1.30;;;21.30;99.90;;;;;;5117599;27;20510;-90
2022/08/20 08:35:07;;;;;;;4.55;1.17;;;21.40;99.90;;;;;;5118328;27;20510;-90
2022/08/20 08:37:33;;;;;;;4.15;1.40;;;21.60;99.90;;;;;;5118320;27;20078;-91
2022/08/20 08:40:00;;;;;;;5.57;1.73;;;21.50;99.90;;;;;;5100378;27;20123;-90
2022/08/20 08:42:36;;;;;;;5.38;1.25;;;21.30;99.90;;;;;;5101881;27;20053;-90
2022/08/20 08:45:04;;;;;;;4.72;1.50;;;21.30;99.90;;;;;;5137275;27;20035;-90
2022/08/20 08:47:34;;;;;;;6.70;1.25;;;21.70;99.90;;;;;;5138737;27;20102;-90
2022/08/20 08:50:02;;;;;;;5.55;1.65;;;21.80;99.90;;;;;;5117461;27;20054;-90
2022/08/20 08:52:30;;;;;;;;;;;22.10;99.90;;;;;;5100815;27;20392;-90
2022/08/20 08:54:59;;;;;;;7.50;1.80;;;22.30;99.90;;;;;;5134491;27;19916;-90
2022/08/20 08:57:25;;;;;;;4.53;1.55;;;22.30;99.90;;;;;;5099901;27;20043;-90
2022/08/20 08:59:58;;;;;;;4.50;1.47;;;22.20;99.90;;;;;;5135670;27;20039;-90
2022/08/20 09:02:25;;;;;;;4.85;1.42;;;22.30;99.90;;;;;;5116472;27;20780;-90
2022/08/20 09:04:54;;;;;;;6.85;1.58;;;22.60;99.90;;;;;;5135397;27;20039;-91
2022/08/20 09:07:20;;;;;;;5.95;1.85;;;22.90;99.90;;;;;;5099805;27;20042;-90
2022/08/20 09:09:46;;;;;;;6.85;1.52;;;22.80;99.90;;;;;;5116442;27;20099;-90
2022/08/20 09:12:17;;;;;;;6.05;1.45;;;22.60;99.90;;;;;;5117190;27;20184;-90
2022/08/20 09:14:45;;;;;;;6.35;1.60;;;22.70;99.90;;;;;;5116880;27;20078;-90
2022/08/20 09:17:10;;;;;;;5.75;1.40;;;22.50;99.90;;;;;;5116244;27;20062;-90
2022/08/20 09:19:36;;;;;;;3.78;1.00;;;22.60;99.90;;;;;;5099649;27;20050;-90
2022/08/20 09:22:14;;;;;;;3.78;1.20;;;22.70;99.90;;;;;;5134213;27;20046;-90
2022/08/20 09:24:40;;;;;;;4.13;1.00;;;22.40;99.90;;;;;;5116790;27;20451;-90
2022/08/20 09:27:06;;;;;;;6.18;1.08;;;22.50;99.90;;;;;;5135126;27;20441;-90
2022/08/20 09:29:32;;;;;;;4.50;1.20;;;22.60;99.90;;;;;;5116535;27;20127;-90
2022/08/20 09:32:11;;;;;;;4.90;1.30;;;22.80;99.90;;;;;;5116045;27;20062;-90
2022/08/20 09:34:43;;;;;;;4.40;1.20;;;23.00;99.90;;;;;;5116448;27;20096;-89
2022/08/20 09:37:09;;;;;;;3.55;1.10;;;23.20;99.90;;;;;;5098986;27;20047;-90
2022/08/20 09:39:35;;;;;;;6.38;1.35;;;23.30;99.90;;;;;;5134069;27;20047;-90
2022/08/20 09:42:13;;;;;;;4.00;1.08;;;23.40;99.90;;;;;;5115839;27;20051;-89
2022/08/20 09:44:39;;;;;;;3.72;1.27;;;23.40;99.90;;;;;;5134849;27;20095;-90
2022/08/20 09:47:05;;;;;;;3.78;0.95;;;23.60;99.90;;;;;;5134466;27;20475;-90
2022/08/20 09:49:31;;;;;;;4.72;1.38;;;23.80;99.90;;;;;;5116316;27;20373;-89
2022/08/20 09:51:58;;;;;;;4.90;1.20;;;24.00;99.90;;;;;;5098710;27;20066;-90
2022/08/20 09:54:28;;;;;;;11.65;1.75;;;23.90;99.90;;;;;;5116141;27;20099;-89
2022/08/20 09:56:56;;;;;;;5.32;1.20;;;23.90;99.90;;;;;;5098749;27;20421;-89
2022/08/20 09:59:22;;;;;;;5.03;1.33;;;24.10;99.90;;;;;;5115203;27;20411;-90
2022/08/20 10:01:48;;;;;;;3.65;1.15;;;24.10;99.90;;;;;;5098714;27;20042;-89
2022/08/20 10:04:13;;;;;;;5.10;1.30;;;24.30;99.90;;;;;;5115792;27;20027;-90
2022/08/20 10:06:40;;;;;;;6.97;1.35;;;24.10;99.90;;;;;;5115667;27;20084;-90
2022/08/20 10:09:06;;;;;;;3.90;1.63;;;24.30;99.90;;;;;;5115550;27;20046;-89
2022/08/20 10:11:31;;;;;;;3.53;1.08;;;24.40;99.90;;;;;;5115341;27;20039;-89
2022/08/20 10:13:57;;;;;;;3.97;1.25;;;24.50;99.90;;;;;;5133178;27;20039;-89
2022/08/20 10:16:23;;;;;;;3.88;1.05;;;24.40;99.90;;;;;;5098496;27;20039;-89
2022/08/20 10:18:49;;;;;;;5.07;1.40;;;24.60;99.90;;;;;;5115512;27;20417;-89
2022/08/20 10:21:15;;;;;;;3.55;1.15;;;24.50;99.70;;;;;;5115840;27;20027;-89
2022/08/20 10:23:41;;;;;;;4.88;1.42;;;24.30;98.50;;;;;;5115814;27;20558;-89
2022/08/20 10:26:07;;;;;;;3.42;1.30;;;24.40;97.90;;;;;;5115544;27;20035;-89
2022/08/20 10:28:34;;;;;;;4.40;1.05;;;24.50;99.90;;;;;;5098510;27;20361;-89
2022/08/20 10:30:59;;;;;;;5.90;1.20;;;24.60;99.90;;;;;;5121015;27;20035;-89
2022/08/20 10:33:25;;;;;;;3.72;1.23;;;24.50;98.70;;;;;;5109875;27;20038;-89
2022/08/20 10:35:51;;;;;;;4.60;1.20;;;24.50;98.20;;;;;;5147027;27;20099;-89
2022/08/20 10:38:16;;;;;;;4.05;1.20;;;24.60;99.70;;;;;;5127385;27;20040;-89
2022/08/20 10:40:42;;;;;;;2.63;1.00;;;24.70;99.30;;;;;;5133671;27;20054;-89
2022/08/20 10:43:07;;;;;;;5.57;1.27;;;24.70;98.20;;;;;;5138742;27;20074;-89
2022/08/20 10:45:33;;;;;;;4.80;1.20;;;24.50;96.80;;;;;;5139218;27;20180;-89
2022/08/20 10:48:00;;;;;;;6.30;1.30;;;24.60;98.60;;;;;;5156327;27;20079;-90
2022/08/20 10:50:26;;;;;;;3.33;1.40;;;24.80;98.70;;;;;;5134364;27;20087;-89
2022/08/20 10:52:51;;;;;;;4.95;1.15;;;24.70;97.20;;;;;;5116552;27;20281;-89
2022/08/20 10:55:17;;;;;;;4.55;1.55;;;24.60;97.80;;;;;;5098455;27;20487;-89
2022/08/20 10:57:43;;;;;;;4.35;1.20;;;24.60;96.40;;;;;;5098313;27;20050;-90
2022/08/20 11:00:12;;;;;;;5.80;1.52;;;24.10;94.80;;;;;;5115204;27;20031;-89
2022/08/20 11:02:37;;;;;;;5.10;1.50;;;24.60;96.10;;;;;;5133681;27;20114;-90
2022/08/20 11:05:04;;;;;;;4.15;1.10;;;24.00;95.70;;;;;;5115235;27;20532;-89
2022/08/20 11:07:33;;;;;;;3.53;1.20;;;24.20;95.60;;;;;;5114896;27;20510;-89
2022/08/20 11:09:59;;;;;;;3.53;1.10;;;24.60;97.50;;;;;;5097626;27;20031;-90
2022/08/20 11:12:25;;;;;;;5.90;1.42;;;24.80;96.60;;;;;;5097700;27;20054;-90
2022/08/20 11:14:51;;;;;;;4.97;1.38;;;24.80;95.90;;;;;;5114594;27;20039;-89
2022/08/20 11:17:21;;;;;;;4.53;1.52;;;24.80;95.90;;;;;;5133269;27;20035;-89
2022/08/20 11:19:47;;;;;;;4.80;1.40;;;24.90;96.50;;;;;;5114766;27;20043;-89
2022/08/20 11:22:13;;;;;;;6.03;1.70;;;24.70;96.80;;;;;;5114246;28;20502;-89
2022/08/20 11:24:38;;;;;;;4.78;1.48;;;24.20;95.70;;;;;;5097819;28;20055;-89
2022/08/20 11:27:06;;;;;;;7.65;1.60;;;24.30;96.80;;;;;;5113938;28;20031;-89
2022/08/20 11:29:33;;;;;;;4.32;1.33;;;24.70;96.70;;;;;;5132901;28;20046;-89
2022/08/20 11:31:59;;;;;;;6.65;2.03;;;24.50;95.80;;;;;;5097761;28;20507;-89
2022/08/20 11:34:24;;;;;;;4.82;1.50;;;24.20;95.80;;;;;;5114657;28;20035;-89
2022/08/20 11:36:51;;;;;;;4.13;1.42;;;24.50;96.00;;;;;;5114427;28;20377;-89
2022/08/20 11:39:17;;;;;;;7.88;1.55;;;24.70;96.80;;;;;;5097404;28;20055;-89
2022/08/20 11:41:43;;;;;;;4.90;1.50;;;25.00;98.60;;;;;;5096930;28;20135;-89
2022/08/20 11:44:09;;;;;;;3.88;1.13;;;25.10;97.20;;;;;;5114627;27;20122;-89
2022/08/20 11:46:35;;;;;;;4.53;1.10;;;25.30;95.40;;;;;;5118527;27;20066;-89
2022/08/20 11:49:02;;;;;;;4.38;1.42;;;25.40;95.00;;;;;;5118630;27;20055;-89
2022/08/20 11:51:27;;;;;;;7.28;1.52;;;25.70;96.20;;;;;;5118288;27;20395;-89
2022/08/20 11:53:53;;;;;;;4.88;1.55;;;25.50;94.40;;;;;;5136527;27;20043;-89
2022/08/20 11:56:19;;;;;;;4.32;1.25;;;25.20;94.40;;;;;;5135864;27;20031;-89
2022/08/20 11:58:45;;;;;;;3.15;1.13;;;25.00;93.70;;;;;;5136702;27;20051;-89
2022/08/20 12:01:11;;;;;;;4.63;1.02;;;24.80;94.20;;;;;;5118190;27;20046;-89
2022/08/20 12:03:36;;;;;;;4.00;1.30;;;24.60;94.70;;;;;;5117841;27;20078;-89
2022/08/20 12:06:02;;;;;;;4.72;1.40;;;24.50;95.50;;;;;;5118159;27;20050;-89
2022/08/20 12:08:28;;;;;;;3.90;1.10;;;24.80;95.40;;;;;;5136685;27;20096;-89
2022/08/20 12:10:59;;;;;;;5.00;1.50;;;24.80;94.50;;;;;;5116886;27;20410;-89
2022/08/20 12:13:30;;;;;;;6.78;1.60;;;24.70;94.30;;;;;;5118035;27;20047;-89
2022/08/20 12:15:56;;;;;;;2.45;1.13;;;25.00;94.30;;;;;;5117504;27;20403;-89
2022/08/20 12:18:22;;;;;;;4.22;1.20;;;24.90;94.30;;;;;;5117538;27;20047;-89
2022/08/20 12:20:47;;;;;;;4.03;1.10;;;24.70;94.40;;;;;;5100341;27;20313;-89
2022/08/20 12:23:13;;;;;;;3.15;1.30;;;24.80;94.90;;;;;;5100574;27;20054;-89
2022/08/20 12:25:40;;;;;;;4.75;1.33;;;25.00;95.00;;;;;;5117231;27;20504;-89
2022/08/20 12:28:05;;;;;;;4.85;1.50;;;24.60;92.20;;;;;;5100357;27;20047;-89
2022/08/20 12:30:33;;;;;;;3.40;1.13;;;24.60;93.10;;;;;;5117318;27;20224;-89
2022/08/20 12:32:59;;;;;;;5.07;1.60;;;24.40;94.60;;;;;;5117267;27;20053;-88
2022/08/20 12:35:25;;;;;;;4.75;1.50;;;24.40;94.20;;;;;;5100165;27;20122;-89
2022/08/20 12:37:51;;;;;;;6.35;1.35;;;24.30;93.50;;;;;;5116759;27;20092;-89
2022/08/20 12:40:24;;;;;;;3.78;1.20;;;24.60;93.50;;;;;;5116479;27;20058;-89
2022/08/20 12:42:49;;;;;;;3.35;1.30;;;24.90;92.50;;;;;;5117327;27;20169;-89
2022/08/20 12:45:16;;;;;;;6.60;1.50;;;25.20;92.00;;;;;;5117207;27;20521;-89
2022/08/20 12:47:45;;;;;;;6.03;1.63;;;25.30;93.50;;;;;;5135183;27;20410;-88